createdAt,value
2023-06-10T00:02:00.931Z,6.55
2023-06-10T00:05:04.372Z,7.85
2023-06-10T00:08:11.420Z,7.35
2023-06-10T00:11:14.165Z,7.18
2023-06-10T00:14:16.732Z,6.95
2023-06-10T00:17:19.705Z,6.65
2023-06-10T00:20:25.982Z,6.95
2023-06-10T00:23:30.454Z,7.30
2023-06-10T00:26:33.883Z,6.93
2023-06-10T00:29:36.434Z,7.13
2023-06-10T00:32:39.183Z,6.88
2023-06-10T00:35:41.763Z,6.53
2023-06-10T00:38:45.475Z,7.13
2023-06-10T00:41:47.964Z,6.45
2023-06-10T00:44:51.879Z,7.28
2023-06-10T00:47:54.825Z,6.28
2023-06-10T00:50:58.276Z,6.13
2023-06-10T00:54:01.346Z,6.30
2023-06-10T00:57:04.089Z,5.93
2023-06-10T01:00:09.421Z,6.93
2023-06-10T01:03:13.261Z,6.90
2023-06-10T01:06:30.427Z,6.97
2023-06-10T01:09:39.064Z,6.95
2023-06-10T01:13:03.699Z,6.80
2023-06-10T01:16:07.004Z,6.28
2023-06-10T01:19:10.846Z,7.15
2023-06-10T01:22:17.164Z,6.85
2023-06-10T01:25:21.964Z,7.22
2023-06-10T01:31:38.859Z,6.93
2023-06-10T01:34:44.613Z,7.03
2023-06-10T01:37:49.538Z,6.97
2023-06-10T01:40:54.616Z,7.30
2023-06-10T01:43:57.546Z,6.65
2023-06-10T01:47:00.214Z,6.70
2023-06-10T01:50:04.080Z,7.15
2023-06-10T01:53:06.915Z,6.63
2023-06-10T01:56:09.588Z,6.57
2023-06-10T01:59:12.265Z,6.57
2023-06-10T02:02:15.053Z,6.65
2023-06-10T02:05:17.548Z,6.70
2023-06-10T02:08:20.129Z,6.00
2023-06-10T02:11:23.018Z,5.97
2023-06-10T02:14:25.838Z,6.25
2023-06-10T02:17:28.789Z,5.93
2023-06-10T02:20:32.001Z,6.32
2023-06-10T02:23:34.589Z,6.63
2023-06-10T02:26:41.403Z,6.47
2023-06-10T02:29:44.540Z,6.68
2023-06-10T02:32:49.363Z,6.95
2023-06-10T02:35:54.104Z,7.10
2023-06-10T02:38:56.808Z,8.25
2023-06-10T02:41:59.709Z,7.00
2023-06-10T02:45:02.837Z,6.22
2023-06-10T02:48:16.006Z,6.38
2023-06-10T02:51:18.841Z,6.57
2023-06-10T02:54:27.468Z,6.97
2023-06-10T02:57:32.023Z,7.22
2023-06-10T03:00:38.146Z,6.60
2023-06-10T03:03:43.883Z,6.75
2023-06-10T03:06:51.048Z,6.68
2023-06-10T03:10:00.186Z,6.43
2023-06-10T03:13:03.067Z,6.03
2023-06-10T03:16:06.394Z,6.65
2023-06-10T03:19:11.931Z,5.75
2023-06-10T03:22:18.137Z,5.57
2023-06-10T03:25:50.259Z,6.20
2023-06-10T03:28:55.233Z,6.22
2023-06-10T03:32:00.265Z,5.88
2023-06-10T03:35:04.170Z,5.75
2023-06-10T03:38:08.660Z,6.40
2023-06-10T03:41:11.341Z,6.18
2023-06-10T03:44:16.965Z,6.22
2023-06-10T03:47:20.007Z,5.55
2023-06-10T03:50:24.671Z,5.68
2023-06-10T03:56:30.075Z,5.30
2023-06-10T03:59:32.714Z,6.22
2023-06-10T04:02:35.914Z,6.10
2023-06-10T04:05:38.621Z,6.30
2023-06-10T04:08:41.673Z,6.53
2023-06-10T04:11:44.311Z,6.25
2023-06-10T04:14:47.080Z,6.85
2023-06-10T04:17:50.514Z,6.68
2023-06-10T04:20:56.688Z,6.95
2023-06-10T04:23:59.661Z,5.57
2023-06-10T04:27:02.415Z,6.50
2023-06-10T04:30:05.682Z,6.57
2023-06-10T04:33:10.947Z,6.15
2023-06-10T04:36:15.836Z,5.90
2023-06-10T04:39:18.592Z,5.60
2023-06-10T04:42:21.729Z,5.78
2023-06-10T04:45:24.700Z,5.80
2023-06-10T04:48:27.849Z,5.40
2023-06-10T04:51:30.538Z,6.60
2023-06-10T04:54:33.903Z,7.68
2023-06-10T04:57:36.473Z,5.95
2023-06-10T05:00:39.003Z,5.35
2023-06-10T05:03:42.615Z,5.18
2023-06-10T05:06:45.761Z,5.05
2023-06-10T05:09:48.409Z,5.30
2023-06-10T05:12:50.982Z,4.88
2023-06-10T05:15:53.474Z,5.13
2023-06-10T05:18:56.102Z,5.22
2023-06-10T05:21:58.632Z,5.05
2023-06-10T05:25:01.397Z,4.95
2023-06-10T05:28:04.115Z,4.85
2023-06-10T05:31:06.722Z,4.78
2023-06-10T05:34:10.210Z,4.68
2023-06-10T05:37:13.883Z,5.43
2023-06-10T05:40:16.470Z,5.03
2023-06-10T05:43:19.053Z,4.85
2023-06-10T05:46:22.042Z,4.40
2023-06-10T05:49:24.562Z,4.63
2023-06-10T05:52:27.293Z,5.15
2023-06-10T05:55:31.280Z,4.20
2023-06-10T05:58:34.069Z,5.35
2023-06-10T06:01:36.721Z,5.00
2023-06-10T06:04:39.702Z,4.80
2023-06-10T06:07:42.626Z,4.78
2023-06-10T06:10:49.075Z,4.90
2023-06-10T06:13:53.465Z,4.43
2023-06-10T06:16:56.308Z,6.90
2023-06-10T06:19:58.858Z,5.63
2023-06-10T06:23:01.417Z,5.05
2023-06-10T06:26:04.504Z,5.20
2023-06-10T06:29:08.907Z,5.30
2023-06-10T06:32:11.489Z,5.55
2023-06-10T06:35:14.601Z,5.47
2023-06-10T06:38:17.158Z,5.65
2023-06-10T06:41:20.664Z,6.25
2023-06-10T06:44:23.245Z,6.35
2023-06-10T06:47:30.000Z,6.82
2023-06-10T06:50:32.620Z,10.95
2023-06-10T06:53:35.200Z,9.25
2023-06-10T06:56:39.356Z,5.93
2023-06-10T06:59:42.151Z,5.90
2023-06-10T07:02:44.731Z,6.47
2023-06-10T07:05:47.275Z,6.38
2023-06-10T07:08:51.485Z,6.15
2023-06-10T07:11:53.992Z,5.72
2023-06-10T07:14:56.586Z,5.53
2023-06-10T07:17:59.203Z,5.60
2023-06-10T07:21:02.717Z,6.07
2023-06-10T07:24:05.626Z,5.80
2023-06-10T07:27:08.426Z,5.65
2023-06-10T07:30:12.223Z,6.03
2023-06-10T07:33:14.881Z,5.95
2023-06-10T07:36:17.484Z,6.85
2023-06-10T07:39:20.133Z,5.95
2023-06-10T07:42:22.793Z,5.50
2023-06-10T07:45:25.383Z,6.80
2023-06-10T07:48:28.122Z,5.75
2023-06-10T07:51:30.873Z,5.72
2023-06-10T07:54:33.458Z,5.65
2023-06-10T07:57:37.668Z,5.63
2023-06-10T08:00:40.296Z,5.10
2023-06-10T08:03:44.158Z,5.68
2023-06-10T08:09:49.611Z,6.00
2023-06-10T08:12:52.097Z,5.85
2023-06-10T08:15:56.371Z,5.97
2023-06-10T08:18:58.923Z,7.45
2023-06-10T08:22:01.505Z,7.32
2023-06-10T08:25:04.780Z,8.65
2023-06-10T08:28:07.595Z,7.63
2023-06-10T08:31:10.065Z,7.63
2023-06-10T08:34:13.124Z,7.18
2023-06-10T08:37:15.733Z,6.97
2023-06-10T08:40:18.373Z,7.32
2023-06-10T08:43:35.161Z,7.53
2023-06-10T08:46:38.881Z,7.63
2023-06-10T08:49:45.449Z,8.27
2023-06-10T08:52:51.341Z,8.88
2023-06-10T08:55:58.295Z,8.75
2023-06-10T08:59:01.201Z,8.27
2023-06-10T09:02:05.640Z,8.35
2023-06-10T09:05:09.838Z,8.52
2023-06-10T09:08:12.687Z,8.65
2023-06-10T09:11:15.686Z,8.40
2023-06-10T09:14:18.376Z,9.02
2023-06-10T09:17:21.022Z,9.85
2023-06-10T09:20:24.728Z,18.50
2023-06-10T09:23:28.664Z,13.30
2023-06-10T09:26:31.308Z,10.55
2023-06-10T09:29:56.221Z,10.30
2023-06-10T09:33:03.223Z,10.15
2023-06-10T09:36:06.172Z,9.65
2023-06-10T09:39:18.130Z,9.93
2023-06-10T09:42:20.940Z,10.25
2023-06-10T09:45:24.543Z,10.63
2023-06-10T09:48:27.056Z,11.20
2023-06-10T09:51:30.194Z,12.07
2023-06-10T09:54:33.304Z,12.13
2023-06-10T09:57:37.085Z,13.10
2023-06-10T10:00:40.169Z,12.90
2023-06-10T10:03:52.136Z,14.15
2023-06-10T10:06:54.631Z,13.75
2023-06-10T10:09:57.174Z,13.48
2023-06-10T10:13:01.568Z,16.40
2023-06-10T10:16:11.597Z,15.25
2023-06-10T10:19:21.671Z,16.27
2023-06-10T10:22:28.115Z,17.05
2023-06-10T10:25:37.223Z,16.70
2023-06-10T10:28:46.579Z,15.68
2023-06-10T10:31:52.298Z,14.73
2023-06-10T10:35:07.088Z,14.27
2023-06-10T10:38:10.566Z,14.30
2023-06-10T10:41:14.118Z,14.00
2023-06-10T10:44:17.685Z,13.60
2023-06-10T10:47:23.639Z,14.52
2023-06-10T10:50:32.001Z,13.98
2023-06-10T10:53:34.703Z,13.13
2023-06-10T10:56:37.531Z,12.40
2023-06-10T10:59:53.368Z,12.27
2023-06-10T11:03:02.208Z,11.98
2023-06-10T11:06:14.022Z,13.32
2023-06-10T11:12:47.445Z,15.40
2023-06-10T11:15:57.848Z,22.30
2023-06-10T11:22:05.216Z,12.75
2023-06-10T11:25:15.198Z,11.90
2023-06-10T11:28:21.348Z,12.48
2023-06-10T11:31:30.916Z,12.88
2023-06-10T11:34:33.560Z,13.13
2023-06-10T11:37:36.486Z,11.82
2023-06-10T11:40:39.743Z,12.18
2023-06-10T11:43:45.241Z,14.80
2023-06-10T11:46:51.316Z,13.18
2023-06-10T11:49:58.087Z,13.85
2023-06-10T11:53:01.163Z,13.43
2023-06-10T11:56:03.808Z,14.10
2023-06-10T11:59:08.725Z,14.00
2023-06-10T12:02:20.524Z,13.65
2023-06-10T12:05:23.506Z,13.00
2023-06-10T12:08:28.521Z,12.00
2023-06-10T12:11:31.201Z,13.05
2023-06-10T12:14:58.600Z,13.57
2023-06-10T12:18:02.719Z,11.88
2023-06-10T12:21:17.203Z,9.32
2023-06-10T12:24:19.882Z,9.85
2023-06-10T12:27:22.791Z,7.70
2023-06-10T12:30:29.940Z,6.30
2023-06-10T12:33:32.520Z,6.32
2023-06-10T12:36:35.478Z,6.80
2023-06-10T12:39:38.041Z,6.78
2023-06-10T12:42:41.025Z,6.82
2023-06-10T12:45:47.077Z,5.65
2023-06-10T12:48:53.140Z,5.10
2023-06-10T12:51:56.209Z,5.13
2023-06-10T12:54:59.680Z,5.55
2023-06-10T12:58:02.961Z,4.10
2023-06-10T13:01:05.754Z,3.97
2023-06-10T13:04:08.742Z,3.30
2023-06-10T13:07:11.735Z,3.55
2023-06-10T13:10:17.785Z,3.70
2023-06-10T13:13:20.445Z,3.80
2023-06-10T13:16:22.998Z,3.58
2023-06-10T13:19:25.639Z,4.30
2023-06-10T13:22:28.670Z,3.90
2023-06-10T13:25:31.225Z,3.63
2023-06-10T13:28:36.023Z,4.07
2023-06-10T13:31:38.848Z,3.97
2023-06-10T13:34:41.599Z,3.97
2023-06-10T13:37:44.187Z,4.10
2023-06-10T13:40:46.783Z,4.05
2023-06-10T13:43:49.443Z,4.40
2023-06-10T13:46:52.061Z,4.60
2023-06-10T13:49:54.771Z,4.45
2023-06-10T13:52:57.700Z,4.60
2023-06-10T13:56:00.765Z,4.93
2023-06-10T13:59:04.653Z,5.45
2023-06-10T14:02:07.670Z,4.63
2023-06-10T14:05:10.690Z,5.10
2023-06-10T14:08:13.428Z,4.20
2023-06-10T14:11:16.176Z,4.50
2023-06-10T14:14:18.687Z,4.93
2023-06-10T14:17:21.220Z,5.13
2023-06-10T14:20:24.499Z,4.82
2023-06-10T14:23:27.717Z,5.03
2023-06-10T14:26:30.247Z,5.00
2023-06-10T14:29:34.702Z,4.53
2023-06-10T14:32:37.404Z,4.70
2023-06-10T14:35:40.057Z,5.38
2023-06-10T14:38:42.889Z,4.13
2023-06-10T14:41:45.576Z,4.60
2023-06-10T14:44:48.292Z,4.38
2023-06-10T14:47:51.111Z,4.40
2023-06-10T14:50:55.878Z,4.70
2023-06-10T14:53:59.436Z,4.90
2023-06-10T14:57:02.387Z,4.50
2023-06-10T15:00:06.872Z,4.43
2023-06-10T15:03:09.662Z,4.40
2023-06-10T15:06:12.473Z,4.47
2023-06-10T15:09:15.175Z,4.20
2023-06-10T15:12:17.815Z,4.30
2023-06-10T15:15:20.541Z,5.20
2023-06-10T15:18:23.185Z,4.10
2023-06-10T15:21:25.725Z,4.55
2023-06-10T15:24:28.268Z,4.95
2023-06-10T15:27:30.846Z,4.53
2023-06-10T15:30:33.486Z,3.08
2023-06-10T15:33:36.002Z,3.35
2023-06-10T15:36:38.576Z,4.05
2023-06-10T15:39:41.827Z,2.80
2023-06-10T15:42:44.823Z,3.00
2023-06-10T15:45:47.542Z,3.65
2023-06-10T15:48:50.246Z,3.22
2023-06-10T15:51:52.824Z,3.30
2023-06-10T15:54:55.511Z,3.40
2023-06-10T15:58:01.681Z,3.05
2023-06-10T16:01:04.344Z,3.45
2023-06-10T16:04:06.894Z,4.75
2023-06-10T16:07:09.716Z,4.18
2023-06-10T16:10:12.452Z,3.20
2023-06-10T16:13:16.404Z,4.00
2023-06-10T16:16:19.007Z,4.10
2023-06-10T16:19:21.595Z,4.28
2023-06-10T16:22:24.065Z,3.95
2023-06-10T16:25:26.620Z,11.57
2023-06-10T16:28:29.180Z,4.53
2023-06-10T16:31:32.231Z,4.18
2023-06-10T16:34:35.000Z,3.88
2023-06-10T16:37:37.778Z,3.83
2023-06-10T16:40:40.392Z,4.20
2023-06-10T16:43:42.956Z,4.55
2023-06-10T16:46:45.532Z,4.35
2023-06-10T16:49:50.430Z,4.75
2023-06-10T16:52:53.575Z,4.25
2023-06-10T16:55:56.307Z,4.65
2023-06-10T16:58:58.897Z,5.07
2023-06-10T17:02:03.587Z,5.05
2023-06-10T17:05:07.331Z,5.03
2023-06-10T17:08:10.349Z,4.63
2023-06-10T17:11:13.087Z,4.90
2023-06-10T17:14:15.760Z,4.80
2023-06-10T17:17:18.525Z,4.65
2023-06-10T17:20:21.756Z,4.78
2023-06-10T17:23:24.673Z,5.05
2023-06-10T17:26:28.164Z,4.97
2023-06-10T17:29:30.681Z,4.97
2023-06-10T17:32:34.585Z,4.85
2023-06-10T17:35:37.470Z,5.05
2023-06-10T17:38:40.822Z,4.97
2023-06-10T17:41:43.374Z,5.32
2023-06-10T17:44:45.945Z,4.85
2023-06-10T17:47:48.559Z,4.50
2023-06-10T17:50:51.126Z,5.03
2023-06-10T17:53:53.655Z,4.82
2023-06-10T17:56:56.233Z,4.78
2023-06-10T17:59:59.692Z,5.38
2023-06-10T18:03:02.586Z,5.05
2023-06-10T18:06:05.427Z,5.30
2023-06-10T18:09:10.820Z,6.43
2023-06-10T18:12:15.082Z,5.40
2023-06-10T18:15:17.781Z,5.45
2023-06-10T18:18:20.580Z,4.82
2023-06-10T18:21:23.247Z,7.15
2023-06-10T18:24:26.021Z,8.32
2023-06-10T18:27:29.720Z,6.18
2023-06-10T18:30:32.342Z,6.22
2023-06-10T18:33:35.011Z,5.80
2023-06-10T18:36:37.609Z,6.00
2023-06-10T18:39:40.381Z,5.65
2023-06-10T18:42:42.871Z,5.25
2023-06-10T18:45:45.642Z,5.88
2023-06-10T18:48:50.351Z,5.75
2023-06-10T18:51:53.292Z,5.68
2023-06-10T18:54:55.846Z,5.68
2023-06-10T18:57:58.401Z,6.18
2023-06-10T19:01:01.428Z,6.05
2023-06-10T19:04:04.440Z,5.35
2023-06-10T19:07:07.025Z,6.03
2023-06-10T19:10:09.907Z,6.05
2023-06-10T19:13:12.419Z,5.43
2023-06-10T19:16:14.988Z,6.20
2023-06-10T19:19:18.285Z,6.22
2023-06-10T19:22:21.117Z,6.25
2023-06-10T19:25:23.888Z,6.10
2023-06-10T19:28:26.930Z,6.13
2023-06-10T19:31:29.705Z,6.13
2023-06-10T19:34:32.315Z,5.85
2023-06-10T19:37:34.965Z,6.80
2023-06-10T19:40:37.675Z,6.30
2023-06-10T19:43:40.226Z,6.00
2023-06-10T19:46:43.426Z,6.60
2023-06-10T19:49:46.026Z,6.32
2023-06-10T19:52:49.667Z,6.07
2023-06-10T19:55:52.347Z,7.32
2023-06-10T19:58:57.164Z,6.88
2023-06-10T20:02:00.894Z,6.45
2023-06-10T20:05:04.775Z,6.35
2023-06-10T20:08:08.315Z,7.88
2023-06-10T20:11:11.966Z,6.15
2023-06-10T20:14:15.172Z,7.60
2023-06-10T20:17:17.881Z,6.07
2023-06-10T20:20:20.613Z,6.40
2023-06-10T20:23:23.412Z,5.97
2023-06-10T20:26:26.074Z,6.50
2023-06-10T20:29:28.655Z,6.55
2023-06-10T20:32:31.219Z,6.95
2023-06-10T20:35:34.412Z,7.55
2023-06-10T20:38:37.012Z,6.60
2023-06-10T20:41:39.643Z,6.13
2023-06-10T20:44:42.526Z,5.95
2023-06-10T20:47:45.568Z,8.02
2023-06-10T20:50:48.148Z,6.50
2023-06-10T20:53:51.627Z,6.22
2023-06-10T20:56:54.141Z,6.15
2023-06-10T20:59:57.698Z,5.70
2023-06-10T21:03:00.301Z,5.80
2023-06-10T21:06:03.506Z,6.50
2023-06-10T21:09:06.087Z,6.15
2023-06-10T21:12:09.222Z,5.82
2023-06-10T21:15:12.257Z,6.53
2023-06-10T21:18:16.589Z,6.57
2023-06-10T21:21:19.289Z,5.95
2023-06-10T21:24:22.994Z,5.82
2023-06-10T21:27:25.929Z,6.13
2023-06-10T21:30:30.800Z,5.97
2023-06-10T21:33:33.573Z,6.05
2023-06-10T21:36:36.476Z,6.70
2023-06-10T21:39:39.048Z,7.05
2023-06-10T21:42:42.043Z,6.80
2023-06-10T21:45:45.134Z,6.30
2023-06-10T21:51:52.388Z,6.50
2023-06-10T21:54:55.530Z,6.85
2023-06-10T21:57:58.735Z,7.10
2023-06-10T22:01:02.936Z,7.20
2023-06-10T22:07:09.850Z,7.30
2023-06-10T22:10:12.462Z,6.65
2023-06-10T22:13:17.109Z,6.43
2023-06-10T22:16:20.187Z,7.18
2023-06-10T22:19:23.155Z,7.18
2023-06-10T22:22:26.480Z,7.13
2023-06-10T22:25:29.832Z,7.78
2023-06-10T22:28:32.413Z,7.75
2023-06-10T22:31:35.258Z,6.93
2023-06-10T22:34:39.868Z,6.82
2023-06-10T22:37:42.501Z,7.20
2023-06-10T22:40:45.243Z,6.93
2023-06-10T22:43:48.988Z,7.10
2023-06-10T22:46:51.645Z,7.28
2023-06-10T22:49:54.196Z,7.38
2023-06-10T22:52:56.848Z,7.20
2023-06-10T22:55:59.342Z,7.40
2023-06-10T22:59:03.719Z,7.18
2023-06-10T23:02:06.755Z,8.00
2023-06-10T23:05:11.062Z,7.45
2023-06-10T23:08:13.934Z,7.47
2023-06-10T23:11:16.716Z,7.47
2023-06-10T23:14:19.306Z,8.32
2023-06-10T23:17:21.999Z,8.15
2023-06-10T23:20:27.512Z,8.45
2023-06-10T23:23:35.982Z,9.02
2023-06-10T23:26:39.608Z,8.60
2023-06-10T23:29:56.519Z,8.88
2023-06-10T23:33:02.271Z,8.57
2023-06-10T23:36:05.068Z,9.20
2023-06-10T23:39:11.135Z,9.48
2023-06-10T23:42:14.209Z,9.10
2023-06-10T23:45:17.357Z,9.65
2023-06-10T23:48:19.885Z,9.48
2023-06-10T23:51:22.752Z,9.45
2023-06-10T23:54:27.085Z,10.43
2023-06-10T23:57:29.832Z,9.40
